Airfield :
LOGIN :

Register | Disclaimer

   EN    FR    IT 

 










Legend :    VFR   Marginal VFR   IFR   Intensive IFR   Very Intensive IFR
Visi :
Ceiling :
>= 8 km
>= 3000ft
5 to 8 km
1000 to 3000 ft
1500m to 5 km
500 to 1000 ft
800 to 1500m
200 to 500 ft
< 800m
< 200 ft
Symbols :   Thunderstorms  Fog  Heavy snow  Heavy precipitations  Wind > 20 kt
SIGMETs :     Misc.  Thunderstorms  Icing  Turbulence  Mountain Waves  Volcanic Ashes






- Airport Elevation : 1989 ft
- IATA code : KLV


LKKV - Karlovy Vary

CURRENT METAR :
  • 221900Z VRB02KT CAVOK 05/01 Q0995

EXPIRED METARs :
  • 221830Z 32003KT 240V020 CAVOK 05/01 Q0995
  • 221800Z 06002KT CAVOK 04/00 Q0995
  • 221730Z 25003KT 200V290 CAVOK 06/00 Q0994
  • 221700Z 21004KT 150V270 CAVOK 07/00 Q0994
  • 221630Z 19003KT 140V240 CAVOK 07/01 Q0994

TAF TAF LKKV
Valid from the 22 at 12:00 until the 23 at 18:00 UTC


221100Z 2212/2318 22010KT 9999 SCT040
TEMPO 2212/2220 -RA BKN030
TEMPO 2212/2215 22012G24KT
BECMG 2216/2218 VRB02KT
BECMG 2300/2302 04006KT 3000 BR OVC004
TEMPO 2302/2316 1200 SN BKN002
PROB30
TEMPO 2303/2312 0500 +SN VV001



MET'MAP, your aeronautical weather chart ! - Copyright ORBIFLY December 2007 - Disclaimer

ORBIFLY MET'MAP TEAM :

Programming & Development : Alexandra Zaïnal
Concept & original design : Baudouin d'Aumeries
Assistance for programming : Marc-Olivier Méhu
Technical & hardware support : Manuel Goepfert

Contact : metmap@orbifly.com




SOURCES & CREDITS :

   NOAA